Time;durP1;ratioP1;P1;durP2;ratioP2;P2;SDS_P1;SDS_P2;PMS_P1;PMS_P2;Temp;Humidity;BMP_temperature;BMP_pressure;BME280_temperature;BME280_humidity;BME280_pressure;Samples;Min_cycle;Max_cycle;Signal;HPM_P1;HPM_P2
2022/09/15 00:01:12;;;;;;;11.07;8.48;;;;;;;14.65;100.00;100651.13;5298153;28;20619;-71
2022/09/15 00:03:43;;;;;;;14.13;9.50;;;;;;;14.60;100.00;100640.25;5300480;28;20035;-70
2022/09/15 00:06:15;;;;;;;10.90;9.13;;;;;;;14.61;100.00;100644.53;5300957;28;20093;-71
2022/09/15 00:08:47;;;;;;;11.57;9.33;;;;;;;14.62;100.00;100643.53;5269633;28;20497;-71
2022/09/15 00:11:25;;;;;;;11.65;9.55;;;;;;;14.68;100.00;100642.91;5266119;28;20036;-70
2022/09/15 00:13:59;;;;;;;12.38;9.45;;;;;;;14.56;100.00;100637.13;5272163;28;20032;-70
2022/09/15 00:16:31;;;;;;;12.43;10.20;;;;;;;14.58;100.00;100645.69;5272560;28;20071;-70
2022/09/15 00:19:05;;;;;;;13.45;10.68;;;;;;;14.55;100.00;100645.19;5266523;28;20060;-70
2022/09/15 00:21:39;;;;;;;14.20;10.55;;;;;;;14.54;100.00;100643.53;5267574;28;20036;-71
2022/09/15 00:24:10;;;;;;;12.45;10.68;;;;;;;14.57;100.00;100637.94;5268016;28;20021;-71
2022/09/15 00:26:41;;;;;;;12.82;10.70;;;;;;;14.54;100.00;100639.06;5272791;28;20028;-71
2022/09/15 00:29:12;;;;;;;14.20;11.35;;;;;;;14.51;100.00;100633.31;5270028;28;20511;-71
2022/09/15 00:31:44;;;;;;;13.43;10.63;;;;;;;14.57;100.00;100632.66;5267133;28;20583;-71
2022/09/15 00:34:15;;;;;;;14.05;11.32;;;;;;;14.53;100.00;100628.69;5271710;28;20029;-71
2022/09/15 00:36:46;;;;;;;12.60;10.38;;;;;;;14.49;100.00;100609.75;5271331;28;20013;-71
2022/09/15 00:39:18;;;;;;;13.50;11.13;;;;;;;14.58;100.00;100621.97;5269780;28;20021;-71
2022/09/15 00:41:49;;;;;;;15.32;11.80;;;;;;;14.62;100.00;100621.63;5268173;28;20033;-71
2022/09/15 00:44:20;;;;;;;14.00;11.40;;;;;;;14.64;100.00;100633.66;5267829;28;20496;-71
2022/09/15 00:46:55;;;;;;;14.48;11.77;;;;;;;14.69;100.00;100623.44;5271127;28;20033;-71
2022/09/15 00:49:32;;;;;;;13.27;11.13;;;;;;;14.74;100.00;100623.00;5268000;28;21215;-71
2022/09/15 00:52:35;;;;;;;17.13;11.15;;;;;;;14.74;100.00;100631.72;5270270;28;20065;-70
2022/09/15 00:55:22;;;;;;;16.05;11.70;;;;;;;14.83;100.00;100632.56;5256526;28;20041;-71
2022/09/15 00:58:01;;;;;;;17.80;12.07;;;;;;;14.71;100.00;100625.94;5269967;28;20032;-71
2022/09/15 01:00:33;;;;;;;12.60;11.27;;;;;;;14.69;100.00;100634.00;5269231;28;20492;-71
2022/09/15 01:03:05;;;;;;;15.13;12.20;;;;;;;14.78;100.00;100632.22;5268478;28;20040;-71
2022/09/15 01:05:43;;;;;;;13.20;11.80;;;;;;;14.78;100.00;100630.41;5272348;28;20731;-71
2022/09/15 01:08:21;;;;;;;15.02;12.32;;;;;;;14.77;100.00;100634.03;5288241;28;20137;-71
2022/09/15 01:10:52;;;;;;;17.00;11.73;;;;;;;14.72;100.00;100625.78;5269633;28;20040;-70
2022/09/15 01:13:24;;;;;;;22.63;13.10;;;;;;;14.73;100.00;100632.69;5288687;28;20515;-70
2022/09/15 01:16:13;;;;;;;15.32;13.27;;;;;;;14.96;100.00;100632.06;5286344;28;20067;-71
2022/09/15 01:18:53;;;;;;;17.55;12.65;;;;;;;14.78;100.00;100633.03;5286939;28;20631;-70
2022/09/15 01:21:44;;;;;;;13.07;11.70;;;;;;;14.94;100.00;100628.78;5285412;28;20396;-70
2022/09/15 01:24:24;;;;;;;16.02;12.45;;;;;;;14.82;100.00;100618.53;5288190;28;20392;-71
2022/09/15 01:27:05;;;;;;;16.38;11.88;;;;;;;14.95;100.00;100619.88;5287841;28;20442;-70
2022/09/15 01:30:20;;;;;;;16.10;12.55;;;;;;;15.20;100.00;100631.25;5289625;28;20032;-71
2022/09/15 01:33:07;;;;;;;16.48;12.90;;;;;;;15.08;100.00;100628.13;5179262;28;20038;-70
2022/09/15 01:36:03;;;;;;;14.52;12.35;;;;;;;15.18;100.00;100628.78;5287123;28;20041;-71
2022/09/15 01:38:59;;;;;;;16.75;12.77;;;;;;;15.15;100.00;100623.81;5285740;28;20054;-71
2022/09/15 01:41:41;;;;;;;16.83;11.68;;;;;;;14.99;100.00;100621.19;5288870;28;20084;-71
2022/09/15 01:44:18;;;;;;;17.27;12.10;;;;;;;14.89;100.00;100625.78;5287359;28;20028;-71
2022/09/15 01:47:00;;;;;;;13.10;11.77;;;;;;;15.02;100.00;100629.59;5289286;28;20114;-71
2022/09/15 01:49:42;;;;;;;15.13;11.57;;;;;;;14.95;100.00;100633.06;5268434;28;20538;-71
2022/09/15 01:52:16;;;;;;;13.35;10.82;;;;;;;14.85;100.00;100630.59;5280097;28;20043;-71
2022/09/15 01:54:54;;;;;;;13.65;11.23;;;;;;;14.83;100.00;100628.09;5278177;28;20039;-71
2022/09/15 01:57:26;;;;;;;12.70;11.00;;;;;;;14.75;100.00;100625.44;5285096;28;20065;-71
2022/09/15 01:59:58;;;;;;;13.40;11.10;;;;;;;14.74;100.00;100628.25;5287539;28;20032;-71
2022/09/15 02:02:36;;;;;;;13.02;10.75;;;;;;;14.77;100.00;100625.28;5265104;28;20074;-71
2022/09/15 02:05:24;;;;;;;16.33;12.07;;;;;;;14.84;100.00;100627.09;5288888;28;20027;-71
2022/09/15 02:08:04;;;;;;;12.18;10.88;;;;;;;14.77;100.00;100622.63;5289138;28;20057;-71
2022/09/15 02:11:11;;;;;;;12.60;11.02;;;;;;;14.96;100.00;100621.50;5282755;28;20028;-71
2022/09/15 02:13:52;;;;;;;12.18;10.88;;;;;;;14.79;100.00;100624.13;5286302;28;20115;-71
2022/09/15 02:16:27;;;;;;;13.63;11.10;;;;;;;14.74;100.00;100618.53;5286325;28;20036;-70
2022/09/15 02:19:09;;;;;;;16.90;12.02;;;;;;;14.81;100.00;100616.91;5279452;28;20370;-71
2022/09/15 02:21:52;;;;;;;13.52;11.45;;;;;;;14.82;100.00;100620.34;5284939;28;20388;-71
2022/09/15 02:24:36;;;;;;;14.73;11.77;;;;;;;14.88;100.00;100618.88;5286961;28;20382;-70
2022/09/15 02:27:12;;;;;;;16.45;12.20;;;;;;;14.74;100.00;100617.72;5289569;28;20031;-71
2022/09/15 02:29:46;;;;;;;13.18;10.77;;;;;;;14.74;100.00;100617.72;5286128;28;20088;-71
2022/09/15 02:32:22;;;;;;;14.70;11.50;;;;;;;14.67;100.00;100621.97;5278687;28;20036;-71
2022/09/15 02:34:55;;;;;;;12.98;11.18;;;;;;;14.63;100.00;100626.75;5269856;28;20043;-71
2022/09/15 02:37:27;;;;;;;14.50;11.52;;;;;;;14.60;100.00;100627.06;5287304;28;20492;-70
2022/09/15 02:40:00;;;;;;;12.75;11.07;;;;;;;14.60;100.00;100619.16;5285884;28;20027;-71
2022/09/15 02:42:32;;;;;;;12.37;11.07;;;;;;;14.55;100.00;100630.19;5289301;28;20106;-70
2022/09/15 02:45:04;;;;;;;14.03;11.47;;;;;;;14.51;100.00;100620.16;5288881;28;20032;-71
2022/09/15 02:47:36;;;;;;;12.95;11.35;;;;;;;14.53;100.00;100626.88;5289838;28;20358;-70
2022/09/15 02:50:07;;;;;;;12.40;11.20;;;;;;;14.49;100.00;100629.97;5286229;28;20040;-70
2022/09/15 02:52:39;;;;;;;14.07;11.23;;;;;;;14.46;100.00;100633.75;5280246;28;20016;-70
2022/09/15 02:55:11;;;;;;;11.43;10.30;;;;;;;14.40;100.00;100615.97;5290008;28;20668;-70
2022/09/15 02:57:42;;;;;;;15.65;11.10;;;;;;;14.39;100.00;100624.84;5282545;28;20070;-70
2022/09/15 03:00:15;;;;;;;12.32;11.02;;;;;;;14.36;100.00;100631.28;5284703;28;20020;-71
2022/09/15 03:02:49;;;;;;;12.82;11.40;;;;;;;14.37;100.00;100629.47;5283420;28;20036;-70
2022/09/15 03:05:26;;;;;;;13.13;11.60;;;;;;;14.39;100.00;100630.09;5280474;28;20039;-71
2022/09/15 03:07:58;;;;;;;12.88;11.57;;;;;;;14.27;100.00;100634.03;5284615;28;20585;-70
2022/09/15 03:10:31;;;;;;;16.65;11.52;;;;;;;14.27;100.00;100632.22;5264477;28;20066;-70
2022/09/15 03:13:02;;;;;;;;;;;;;;;14.91;100.00;100634.38;5283687;28;20038;-70
2022/09/15 03:15:34;;;;;;;12.67;10.67;;;;;;;14.31;100.00;100638.81;5291784;28;19920;-71
2022/09/15 03:18:05;;;;;;;13.90;11.30;;;;;;;14.27;100.00;100640.13;5288179;28;20127;-70
2022/09/15 03:20:36;;;;;;;14.07;11.80;;;;;;;14.25;100.00;100636.81;5283829;28;20037;-70
2022/09/15 03:23:08;;;;;;;14.10;11.50;;;;;;;14.19;100.00;100634.00;5280034;28;20025;-70
2022/09/15 03:25:39;;;;;;;14.25;12.00;;;;;;;14.23;100.00;100646.69;5286838;28;20028;-71
2022/09/15 03:28:10;;;;;;;14.57;11.65;;;;;;;14.23;100.00;100645.88;5280164;28;20032;-71
2022/09/15 03:30:42;;;;;;;14.50;12.20;;;;;;;14.21;100.00;100648.66;5289307;28;20112;-71
2022/09/15 03:33:13;;;;;;;14.35;11.55;;;;;;;14.25;100.00;100654.44;5281363;28;20393;-70
2022/09/15 03:35:45;;;;;;;13.05;11.55;;;;;;;14.27;100.00;100650.66;5283504;28;20072;-71
2022/09/15 03:38:18;;;;;;;15.63;12.23;;;;;;;14.28;100.00;100657.59;5263157;28;20311;-70
2022/09/15 03:41:07;;;;;;;13.80;12.40;;;;;;;14.51;100.00;100660.50;5276378;28;20031;-70
2022/09/15 03:43:40;;;;;;;13.32;11.90;;;;;;;14.33;100.00;100659.75;5283958;28;20093;-70
2022/09/15 03:46:11;;;;;;;13.63;12.20;;;;;;;14.34;100.00;100667.47;5283270;28;20024;-70
2022/09/15 03:48:43;;;;;;;14.95;12.20;;;;;;;14.32;100.00;100660.75;5279542;28;20025;-70
2022/09/15 03:51:14;;;;;;;16.60;12.35;;;;;;;14.34;100.00;100669.31;5288537;28;20358;-71
2022/09/15 03:53:45;;;;;;;13.40;11.75;;;;;;;14.34;100.00;100662.22;5290496;28;20026;-70
2022/09/15 03:56:26;;;;;;;14.65;11.90;;;;;;;14.48;100.00;100660.78;5281166;28;20462;-70
2022/09/15 03:59:01;;;;;;;15.60;12.30;;;;;;;14.31;100.00;100659.06;5286183;28;20036;-70
2022/09/15 04:01:33;;;;;;;17.85;12.70;;;;;;;14.29;100.00;100655.78;5277710;28;20028;-71
2022/09/15 04:04:04;;;;;;;14.35;12.20;;;;;;;14.33;100.00;100657.13;5279733;28;20035;-71
2022/09/15 04:06:35;;;;;;;14.50;11.63;;;;;;;14.34;100.00;100659.56;5281538;28;20103;-70
2022/09/15 04:09:07;;;;;;;14.70;11.63;;;;;;;14.35;100.00;100653.31;5287621;28;20024;-71
2022/09/15 04:11:39;;;;;;;13.38;12.07;;;;;;;14.38;100.00;100656.63;5282451;28;20504;-71
2022/09/15 04:14:11;;;;;;;13.57;12.17;;;;;;;14.34;100.00;100656.13;5285642;28;20024;-71
2022/09/15 04:16:42;;;;;;;15.25;12.07;;;;;;;14.33;100.00;100655.31;5287352;28;20031;-71
2022/09/15 04:19:13;;;;;;;18.05;11.80;;;;;;;14.30;100.00;100652.97;5294223;28;20507;-70
2022/09/15 04:21:46;;;;;;;13.63;10.93;;;;;;;14.33;100.00;100662.38;5293169;28;20035;-71
2022/09/15 04:24:18;;;;;;;13.43;11.65;;;;;;;14.30;100.00;100658.25;5286088;28;20035;-71
2022/09/15 04:26:49;;;;;;;15.00;11.55;;;;;;;14.32;100.00;100656.28;5284484;28;20028;-71
2022/09/15 04:29:20;;;;;;;17.55;11.85;;;;;;;14.34;100.00;100658.75;5285749;28;20132;-70
2022/09/15 04:31:52;;;;;;;15.25;11.27;;;;;;;14.36;100.00;100657.63;5283521;28;20460;-71
2022/09/15 04:34:24;;;;;;;19.17;11.18;;;;;;;14.36;100.00;100652.34;5284342;28;20046;-71
2022/09/15 04:36:55;;;;;;;13.82;11.48;;;;;;;14.39;100.00;100653.81;5287226;28;20505;-70
2022/09/15 04:39:26;;;;;;;13.48;11.93;;;;;;;14.40;100.00;100663.41;5286455;28;20027;-70
2022/09/15 04:41:58;;;;;;;16.33;11.63;;;;;;;14.41;100.00;100653.69;5278021;28;20496;-70
2022/09/15 04:44:29;;;;;;;17.17;12.18;;;;;;;14.44;100.00;100650.72;5282076;28;20081;-70
2022/09/15 04:47:00;;;;;;;16.17;12.48;;;;;;;14.47;100.00;100660.94;5288336;28;20411;-70
2022/09/15 04:49:32;;;;;;;14.95;12.52;;;;;;;14.48;100.00;100666.06;5286048;28;20032;-71
2022/09/15 04:52:04;;;;;;;16.60;12.10;;;;;;;14.45;100.00;100655.84;5284761;28;20027;-70
2022/09/15 04:54:35;;;;;;;12.77;11.48;;;;;;;14.46;100.00;100661.94;5290191;28;20374;-70
2022/09/15 04:57:08;;;;;;;13.27;11.88;;;;;;;14.46;100.00;100661.94;5288150;28;20436;-70
2022/09/15 04:59:39;;;;;;;15.27;12.60;;;;;;;14.50;100.00;100663.28;5282258;28;20481;-70
2022/09/15 05:02:11;;;;;;;14.15;12.65;;;;;;;14.48;100.00;100658.16;5278806;28;20063;-71
2022/09/15 05:04:42;;;;;;;14.77;11.95;;;;;;;14.48;100.00;100660.78;5285367;28;20036;-70
2022/09/15 05:07:14;;;;;;;19.80;12.38;;;;;;;14.45;100.00;100650.56;5284536;28;20048;-70
2022/09/15 05:09:45;;;;;;;14.95;12.75;;;;;;;14.54;100.00;100656.72;5285694;28;20032;-70
2022/09/15 05:12:16;;;;;;;15.55;12.27;;;;;;;14.51;100.00;100655.25;5284103;28;20059;-70
2022/09/15 05:14:47;;;;;;;15.10;11.93;;;;;;;14.50;100.00;100655.38;5286288;28;20389;-70
2022/09/15 05:17:19;;;;;;;13.65;12.30;;;;;;;14.48;100.00;100644.97;5264362;28;20366;-70
2022/09/15 05:19:50;;;;;;;14.85;12.43;;;;;;;14.48;100.00;100647.59;5282435;28;20024;-70
2022/09/15 05:22:22;;;;;;;12.73;11.30;;;;;;;14.50;100.00;100647.47;5252995;28;20033;-70
2022/09/15 05:24:53;;;;;;;12.85;11.55;;;;;;;14.33;100.00;100625.50;5251827;28;20115;-70
2022/09/15 05:27:24;;;;;;;14.50;12.10;;;;;;;14.50;100.00;100652.75;5274551;28;20048;-70
2022/09/15 05:29:55;;;;;;;13.57;12.05;;;;;;;14.51;100.00;100649.13;5280504;28;20407;-70
2022/09/15 05:32:27;;;;;;;13.13;11.82;;;;;;;14.50;100.00;100650.94;5283346;28;20426;-70
2022/09/15 05:34:58;;;;;;;13.52;12.23;;;;;;;14.52;100.00;100656.06;5281344;28;20059;-70
2022/09/15 05:37:29;;;;;;;14.35;11.15;;;;;;;14.56;100.00;100665.28;5282245;28;20092;-70
2022/09/15 05:40:01;;;;;;;15.70;12.75;;;;;;;14.59;100.00;100668.44;5288478;28;20032;-70
2022/09/15 05:42:32;;;;;;;13.63;12.32;;;;;;;14.61;100.00;100670.91;5272325;28;20062;-70
2022/09/15 05:45:03;;;;;;;13.70;12.15;;;;;;;14.64;100.00;100675.84;5286717;28;20552;-70
2022/09/15 05:47:35;;;;;;;13.52;12.30;;;;;;;14.64;100.00;100681.13;5284926;28;20067;-70
2022/09/15 05:50:06;;;;;;;14.00;12.63;;;;;;;14.67;100.00;100680.81;5280536;28;20028;-70
2022/09/15 05:52:37;;;;;;;13.45;11.98;;;;;;;14.68;100.00;100682.47;5290806;28;20028;-70
2022/09/15 05:55:09;;;;;;;14.30;12.85;;;;;;;14.69;100.00;100676.19;5283644;28;20495;-71
2022/09/15 05:57:40;;;;;;;15.27;13.68;;;;;;;14.73;100.00;100690.69;5283151;28;20032;-70
2022/09/15 06:00:12;;;;;;;13.93;12.63;;;;;;;14.75;100.00;100691.38;5285239;28;20052;-70
2022/09/15 06:02:43;;;;;;;14.80;12.57;;;;;;;14.77;100.00;100691.22;5286034;28;20036;-71
2022/09/15 06:05:14;;;;;;;15.38;13.85;;;;;;;14.80;100.00;100697.00;5289788;28;20073;-71
2022/09/15 06:07:45;;;;;;;15.13;13.63;;;;;;;14.82;100.00;100699.47;5287376;28;20044;-71
2022/09/15 06:10:17;;;;;;;17.58;13.63;;;;;;;14.80;100.00;100697.00;5285281;28;20095;-71
2022/09/15 06:12:48;;;;;;;15.13;12.95;;;;;;;14.84;100.00;100700.13;5266508;28;20385;-71
2022/09/15 06:15:20;;;;;;;16.27;13.13;;;;;;;14.86;100.00;100702.63;5288657;28;20029;-70
2022/09/15 06:17:52;;;;;;;17.08;13.02;;;;;;;14.92;100.00;100701.97;5285942;28;20036;-71
2022/09/15 06:20:24;;;;;;;15.77;14.02;;;;;;;14.97;100.00;100704.97;5280192;28;20442;-71
2022/09/15 06:22:55;;;;;;;18.77;12.10;;;;;;;15.00;100.00;100707.25;5264566;28;20032;-71
2022/09/15 06:25:27;;;;;;;18.00;13.32;;;;;;;15.05;100.00;100713.69;5268145;28;20032;-71
2022/09/15 06:27:58;;;;;;;17.50;14.00;;;;;;;15.08;100.00;100717.84;5285133;28;20028;-71
2022/09/15 06:30:29;;;;;;;16.85;14.23;;;;;;;15.14;100.00;100717.16;5286524;28;20020;-71
2022/09/15 06:33:01;;;;;;;17.33;14.35;;;;;;;15.17;100.00;100721.31;5289565;28;20024;-71
2022/09/15 06:35:32;;;;;;;17.02;14.27;;;;;;;15.23;100.00;100720.66;5277885;28;20070;-71
2022/09/15 06:38:03;;;;;;;16.98;13.63;;;;;;;15.28;100.00;100721.81;5282700;28;20020;-71
2022/09/15 06:40:34;;;;;;;16.90;15.10;;;;;;;15.30;100.00;100730.41;5294285;28;20032;-71
2022/09/15 06:43:06;;;;;;;16.10;14.07;;;;;;;15.31;100.00;100732.06;5284409;28;20028;-71
2022/09/15 06:45:37;;;;;;;17.88;15.00;;;;;;;15.32;100.00;100732.88;5285242;28;20029;-71
2022/09/15 06:48:08;;;;;;;16.95;13.90;;;;;;;15.34;100.00;100730.88;5288721;28;20032;-72
2022/09/15 06:50:40;;;;;;;16.05;14.35;;;;;;;15.35;100.00;100726.44;5286426;28;20029;-71
2022/09/15 06:53:11;;;;;;;17.10;14.70;;;;;;;15.35;100.00;100735.19;5287064;28;20397;-71
2022/09/15 06:55:42;;;;;;;17.00;14.70;;;;;;;15.38;100.00;100729.59;5283292;28;20496;-71
2022/09/15 06:58:13;;;;;;;15.68;14.02;;;;;;;15.45;100.00;100737.66;5289176;28;20028;-71
2022/09/15 07:00:45;;;;;;;17.80;14.27;;;;;;;15.44;100.00;100730.72;5285704;28;20370;-71
2022/09/15 07:03:16;;;;;;;21.38;15.25;;;;;;;15.47;100.00;100739.16;5286793;28;20376;-71
2022/09/15 07:05:48;;;;;;;17.80;14.88;;;;;;;15.62;100.00;100744.59;5284005;28;20020;-71
2022/09/15 07:08:19;;;;;;;18.85;15.20;;;;;;;15.71;100.00;100753.38;5283903;28;20139;-71
2022/09/15 07:10:51;;;;;;;18.02;14.13;;;;;;;15.74;100.00;100751.22;5286364;28;20024;-71
2022/09/15 07:13:23;;;;;;;17.52;13.88;;;;;;;15.78;100.00;100746.44;5281899;28;20034;-71
2022/09/15 07:15:57;;;;;;;18.35;13.80;;;;;;;15.94;100.00;100756.97;5287738;28;20040;-71
2022/09/15 07:18:29;;;;;;;20.42;14.48;;;;;;;15.94;100.00;100758.78;5282844;28;20032;-71
2022/09/15 07:21:06;;;;;;;17.33;13.98;;;;;;;16.07;100.00;100755.66;5286472;28;20060;-71
2022/09/15 07:23:38;;;;;;;14.63;12.20;;;;;;;15.98;100.00;100762.75;5285617;28;20109;-71
2022/09/15 07:26:14;;;;;;;15.00;13.50;;;;;;;16.11;100.00;100763.06;5284203;28;20487;-71
2022/09/15 07:28:51;;;;;;;14.70;12.73;;;;;;;16.12;100.00;100762.06;5285437;28;20032;-71
2022/09/15 07:31:24;;;;;;;15.57;12.35;;;;;;;16.14;100.00;100760.09;5281867;28;20020;-71
2022/09/15 07:33:58;;;;;;;13.88;12.40;;;;;;;16.16;100.00;100759.94;5286839;28;20024;-71
2022/09/15 07:36:30;;;;;;;13.60;12.18;;;;;;;16.21;100.00;100763.72;5285566;28;20487;-71
2022/09/15 07:39:03;;;;;;;14.95;12.77;;;;;;;16.28;100.00;100769.97;5281100;28;20385;-71
2022/09/15 07:41:34;;;;;;;;;;;;;;;16.88;100.00;100770.44;5287017;28;20029;-71
2022/09/15 07:44:05;;;;;;;16.38;11.57;;;;;;;16.42;100.00;100773.75;5287023;28;19969;-71
2022/09/15 07:46:37;;;;;;;14.75;12.93;;;;;;;16.43;100.00;100778.03;5282449;28;20020;-71
2022/09/15 07:49:08;;;;;;;14.70;12.82;;;;;;;16.48;100.00;100774.88;5284061;28;20035;-71
2022/09/15 07:51:40;;;;;;;13.40;12.00;;;;;;;16.49;100.00;100773.88;5287565;28;20024;-71
2022/09/15 07:54:11;;;;;;;13.93;12.38;;;;;;;16.48;100.00;100777.53;5285839;28;20027;-71
2022/09/15 07:56:43;;;;;;;16.55;12.50;;;;;;;16.53;100.00;100770.72;5290913;28;20085;-71
2022/09/15 07:59:14;;;;;;;13.32;11.93;;;;;;;16.51;100.00;100774.53;5284330;28;20174;-71
2022/09/15 08:01:45;;;;;;;13.43;12.10;;;;;;;16.58;100.00;100782.59;5283299;28;20035;-71
2022/09/15 08:04:16;;;;;;;13.40;11.90;;;;;;;16.58;100.00;100778.13;5288504;28;20035;-71
2022/09/15 08:09:29;;;;;;;14.68;11.00;;;;;;;16.65;100.00;100787.03;5278006;28;20048;-70
2022/09/15 08:12:01;;;;;;;13.35;10.93;;;;;;;16.67;100.00;100786.91;5284373;28;20039;-70
2022/09/15 08:14:33;;;;;;;13.98;10.18;;;;;;;16.71;100.00;100794.31;5287131;28;20029;-71
2022/09/15 08:17:04;;;;;;;15.32;10.82;;;;;;;16.71;100.00;100778.44;5284101;28;20361;-70
2022/09/15 08:19:36;;;;;;;12.20;10.95;;;;;;;16.84;100.00;100796.44;5287482;28;20044;-70
2022/09/15 08:22:07;;;;;;;14.05;10.80;;;;;;;16.87;100.00;100797.91;5287953;28;20107;-69
2022/09/15 08:24:38;;;;;;;11.68;9.65;;;;;;;16.86;100.00;100798.88;5288278;28;20028;-69
2022/09/15 08:27:09;;;;;;;12.48;10.30;;;;;;;16.97;100.00;100801.16;5282353;28;20016;-70
2022/09/15 08:29:41;;;;;;;16.40;8.70;;;;;;;16.95;100.00;100809.28;5290929;28;20067;-70
2022/09/15 08:32:12;;;;;;;13.98;8.73;;;;;;;16.91;100.00;100810.63;5291011;28;20028;-70
2022/09/15 08:34:44;;;;;;;10.70;8.67;;;;;;;16.91;100.00;100815.91;5287498;28;20059;-70
2022/09/15 08:37:16;;;;;;;10.23;8.38;;;;;;;16.96;100.00;100815.38;5286059;28;20302;-70
2022/09/15 08:39:47;;;;;;;12.77;9.13;;;;;;;16.94;100.00;100817.41;5287541;28;20028;-70
2022/09/15 08:42:19;;;;;;;11.77;7.93;;;;;;;16.90;100.00;100824.03;5289462;28;20499;-70
2022/09/15 08:45:15;;;;;;;13.70;9.20;;;;;;;17.15;100.00;100822.91;5286570;28;20042;-70
2022/09/15 08:47:54;;;;;;;11.73;9.32;;;;;;;17.00;100.00;100816.69;5284824;28;20387;-70
2022/09/15 08:50:30;;;;;;;11.27;9.00;;;;;;;17.00;100.00;100820.16;5287880;28;20020;-70
2022/09/15 08:53:05;;;;;;;11.32;9.50;;;;;;;17.01;100.00;100826.31;5288758;28;20025;-70
2022/09/15 08:55:36;;;;;;;11.43;9.50;;;;;;;17.00;100.00;100824.63;5287027;28;20028;-70
2022/09/15 08:58:15;;;;;;;14.47;10.03;;;;;;;17.19;100.00;100826.84;5288985;28;20481;-69
2022/09/15 09:00:51;;;;;;;11.85;9.57;;;;;;;17.15;100.00;100836.13;5285238;28;20038;-69
2022/09/15 09:04:00;;;;;;;11.57;9.32;;;;;;;17.56;100.00;100833.25;5293022;28;20546;-69
2022/09/15 09:06:53;;;;;;;12.65;9.02;;;;;;;17.43;100.00;100835.69;5243099;28;20462;-70
2022/09/15 09:09:58;;;;;;;11.13;8.43;;;;;;;17.64;100.00;100840.31;5267451;28;20044;-70
2022/09/15 09:12:52;;;;;;;12.55;8.50;;;;;;;17.68;100.00;100847.75;5291735;28;20384;-70
2022/09/15 09:15:44;;;;;;;10.70;7.45;;;;;;;17.61;100.00;100848.63;5283403;28;20385;-71
2022/09/15 09:18:45;;;;;;;8.43;7.00;;;;;;;17.92;100.00;100852.09;5288145;28;20020;-70
2022/09/15 09:21:25;;;;;;;9.35;6.30;;;;;;;17.79;100.00;100853.66;5286773;28;20023;-71
2022/09/15 09:24:04;;;;;;;8.10;6.30;;;;;;;17.77;100.00;100860.94;5290479;28;20025;-71
2022/09/15 09:26:35;;;;;;;9.88;5.82;;;;;;;17.74;100.00;100852.34;5289059;28;20059;-71
2022/09/15 09:29:15;;;;;;;11.55;6.10;;;;;;;17.89;100.00;100851.63;5284213;28;20070;-70
2022/09/15 09:31:49;;;;;;;7.15;4.72;;;;;;;17.86;100.00;100849.31;5286375;28;20016;-71
2022/09/15 09:34:41;;;;;;;9.02;5.00;;;;;;;18.11;100.00;100850.75;5284681;28;20485;-71
2022/09/15 09:37:15;;;;;;;6.15;4.15;;;;;;;17.86;100.00;100851.97;5282479;28;20024;-71
2022/09/15 09:39:46;;;;;;;6.43;4.35;;;;;;;17.75;100.00;100851.38;5287180;28;20028;-71
2022/09/15 09:42:18;;;;;;;9.25;4.40;;;;;;;17.87;100.00;100854.41;5284817;28;20497;-71
2022/09/15 09:44:50;;;;;;;7.07;3.92;;;;;;;17.86;100.00;100852.78;5282551;28;20028;-71
2022/09/15 09:47:26;;;;;;;7.15;4.78;;;;;;;17.82;100.00;100859.44;5285175;28;20020;-71
2022/09/15 09:49:58;;;;;;;9.35;3.97;;;;;;;17.64;100.00;100850.94;5288831;28;20028;-71
2022/09/15 09:52:35;;;;;;;8.68;4.50;;;;;;;17.82;100.00;100858.63;5287612;28;20032;-70
2022/09/15 09:55:25;;;;;;;8.02;5.00;;;;;;;17.92;100.00;100859.22;5284857;28;20104;-70
2022/09/15 09:58:11;;;;;;;10.93;5.57;;;;;;;17.87;100.00;100857.06;5286304;28;20028;-71
2022/09/15 10:00:42;;;;;;;11.00;6.03;;;;;;;17.65;100.00;100852.56;5285209;28;20382;-71
2022/09/15 10:03:18;;;;;;;8.38;5.68;;;;;;;17.75;100.00;100846.06;5289193;28;20020;-71
2022/09/15 10:06:10;;;;;;;10.35;5.53;;;;;;;17.82;100.00;100851.50;5289565;28;20035;-71
2022/09/15 10:08:54;;;;;;;7.93;5.60;;;;;;;17.78;100.00;100857.31;5284719;28;20040;-71
2022/09/15 10:11:45;;;;;;;14.75;6.30;;;;;;;17.75;100.00;100867.25;5280527;28;20036;-70
2022/09/15 10:14:25;;;;;;;8.50;5.85;;;;;;;17.49;100.00;100862.25;5286249;28;20051;-70
2022/09/15 10:16:58;;;;;;;7.15;4.32;;;;;;;17.30;100.00;100867.19;5286380;28;20023;-70
2022/09/15 10:19:34;;;;;;;7.93;4.25;;;;;;;17.38;100.00;100869.78;5287776;28;20038;-70
2022/09/15 10:22:05;;;;;;;8.23;5.38;;;;;;;17.40;100.00;100862.50;5278053;28;20032;-70
2022/09/15 10:24:38;;;;;;;10.18;4.55;;;;;;;17.39;100.00;100859.03;5281731;28;20031;-71
2022/09/15 10:27:26;;;;;;;7.43;3.63;;;;;;;17.61;100.00;100860.03;5279121;28;20040;-70
2022/09/15 10:30:13;;;;;;;7.60;3.90;;;;;;;17.41;100.00;100858.84;5282104;28;20073;-71
2022/09/15 10:32:44;;;;;;;6.20;3.70;;;;;;;17.54;100.00;100856.47;5290036;28;20033;-70
2022/09/15 10:35:18;;;;;;;8.20;3.40;;;;;;;17.58;100.00;100857.75;5278381;28;20017;-70
2022/09/15 10:38:14;;;;;;;5.90;3.00;;;;;;;17.71;100.00;100860.63;5284994;28;20345;-70
2022/09/15 10:41:02;;;;;;;6.28;2.60;;;;;;;17.60;100.00;100861.03;5274066;28;20036;-70
2022/09/15 10:43:49;;;;;;;5.70;2.20;;;;;;;17.62;100.00;100858.25;5280505;28;20024;-70
2022/09/15 10:46:26;;;;;;;5.95;2.10;;;;;;;17.74;100.00;100867.41;5265247;28;20074;-70
2022/09/15 10:49:06;;;;;;;6.07;1.77;;;;;;;17.69;100.00;100870.59;5280509;28;20500;-70
2022/09/15 10:51:38;;;;;;;4.72;1.50;;;;;;;17.67;100.00;100869.94;5279340;28;20036;-70
2022/09/15 10:54:21;;;;;;;4.43;1.97;;;;;;;18.05;100.00;100870.03;5283066;28;20086;-70
2022/09/15 10:57:06;;;;;;;7.22;1.83;;;;;;;18.02;100.00;100874.84;5284678;28;20186;-70
2022/09/15 10:59:54;;;;;;;6.22;2.30;;;;;;;17.99;100.00;100878.69;5286308;28;20044;-70
2022/09/15 11:03:03;;;;;;;5.60;1.70;;;;;;;18.02;100.00;100875.69;5285777;28;20111;-70
2022/09/15 11:05:48;;;;;;;2.33;0.93;;;;;;;17.90;100.00;100880.56;5285885;28;20042;-70
2022/09/15 11:08:19;;;;;;;4.00;1.50;;;;;;;17.84;100.00;100878.66;5283857;28;20103;-70
2022/09/15 11:11:22;;;;;;;3.77;1.10;;;;;;;18.17;100.00;100873.91;5285286;28;20060;-70
2022/09/15 11:14:27;;;;;;;3.78;1.10;;;;;;;18.26;100.00;100884.44;5284360;28;20651;-70
2022/09/15 11:17:08;;;;;;;5.93;1.38;;;;;;;18.15;100.00;100877.75;5284514;28;20085;-70
2022/09/15 11:20:11;;;;;;;3.47;1.08;;;;;;;18.32;100.00;100881.88;5288473;28;20036;-70
2022/09/15 11:22:51;;;;;;;2.08;0.90;;;;;;;18.26;100.00;100876.47;5290196;28;20560;-69
2022/09/15 11:25:27;;;;;;;3.65;1.50;;;;;;;18.23;100.00;100875.84;5285663;28;20024;-70
2022/09/15 11:28:28;;;;;;;3.92;1.08;;;;;;;18.55;100.00;100879.19;5282259;28;20024;-70
2022/09/15 11:31:22;;;;;;;4.10;1.35;;;;;;;18.56;100.00;100872.88;5285026;28;20024;-70
2022/09/15 11:34:02;;;;;;;4.22;1.13;;;;;;;18.55;100.00;100878.34;5282761;28;20024;-70
2022/09/15 11:36:43;;;;;;;5.95;1.27;;;;;;;18.67;100.00;100888.34;5288691;28;20024;-70
2022/09/15 11:39:33;;;;;;;3.55;1.10;;;;;;;18.66;100.00;100881.38;5284675;28;20148;-70
2022/09/15 11:42:31;;;;;;;4.93;1.35;;;;;;;18.91;100.00;100881.97;5285986;28;20051;-70
2022/09/15 11:45:05;;;;;;;7.18;1.50;;;;;;;18.60;100.00;100884.78;5285175;28;20047;-70
2022/09/15 11:47:44;;;;;;;6.22;1.17;;;;;;;18.63;100.00;100881.75;5284890;28;20543;-70
2022/09/15 11:50:21;;;;;;;4.65;0.88;;;;;;;18.68;100.00;100884.69;5285237;28;20043;-70